Eishin Maru No.18 — JD2146 — position and weather

sailwx.info

Track history (hours):
 
Tides and Currents Weather Stations Pressure Air Temp Water Temp Dewpoint Dewpoint Depression Visibility Wind Speed Wind Dir Waves Ship Positions

Eishin Maru No.18

Last reported at 2018-Feb-23 19:56 UTC. Time now 2018-Feb-24 03:48 UTC.
Position N 40°54' E 140°46'.

Length 104 m; draft 6.4 m.

Type: Tanker. MMSI: 431501832.

Date/timePositionNaut miles runAvg speedWind from/ knotsBaromVisibWave heightAir tempDewpointWater temp
2018-Feb-23 19:56N 40°54' E 140°46'0 0.0
2018-Feb-23 18:58N 40°54' E 140°46'0 0.1
2018-Feb-23 18:20N 40°54' E 140°46'411.5
2018-Feb-23 18:00N 40°57' E 140°45'713.5
2018-Feb-23 17:31N 41°04' E 140°44'713.6
2018-Feb-23 16:59N 41°11' E 140°43'613.2
2018-Feb-23 16:30N 41°17' E 140°44'713.7
2018-Feb-23 16:00N 41°24' E 140°45'712.7
2018-Feb-23 15:30N 41°30' E 140°48'611.8
2018-Feb-23 15:00N 41°35' E 140°52'5 9.8
2018-Feb-23 14:31N 41°38' E 140°57'611.3
2018-Feb-23 14:00N 41°41' E 141°03'713.3
2018-Feb-23 13:30N 41°45' E 141°11'612.0
2018-Feb-23 13:00N 41°51' E 141°13'  
2018-Feb-17 02:49N 35°03' E 140°21'714.8
2018-Feb-17 02:20N 34°60' E 140°13'514.9
2018-Feb-17 02:00N 34°58' E 140°08'814.9
2018-Feb-17 01:27N 34°54' E 139°59'714.1
2018-Feb-17 00:58N 34°51' E 139°51'1012.9
2018-Feb-17 00:09N 34°58' E 139°42'213.6
2018-Feb-16 23:59N 35°01' E 139°43'713.5
2018-Feb-16 23:30N 35°07' E 139°45'713.7
2018-Feb-16 23:00N 35°14' E 139°46'613.0
2018-Feb-16 22:30N 35°20' E 139°43'612.4
2018-Feb-16 22:00N 35°25' E 139°45'5 9.9
2018-Feb-16 21:29N 35°30' E 139°47'1 1.1
2018-Feb-16 21:00N 35°31' E 139°46'0 0.0
2018-Feb-16 20:30N 35°31' E 139°46'0 0.0
2018-Feb-16 20:00N 35°31' E 139°46'0 0.0
2018-Feb-16 19:30N 35°31' E 139°46'0 0.0
2018-Feb-16 19:00N 35°31' E 139°46'0 0.0
2018-Feb-16 18:30N 35°31' E 139°46'0 0.0
2018-Feb-16 17:54N 35°31' E 139°46'0 0.0
2018-Feb-16 17:18N 35°31' E 139°46'0 0.0
2018-Feb-16 17:00N 35°31' E 139°46'0 0.0
2018-Feb-16 16:24N 35°31' E 139°46'0 0.0
2018-Feb-16 16:00N 35°31' E 139°46'0 0.0
2018-Feb-16 15:30N 35°31' E 139°46'0 0.0
2018-Feb-16 15:00N 35°31' E 139°46'0 0.0
2018-Feb-16 14:30N 35°31' E 139°46'0 0.0
2018-Feb-16 13:54N 35°31' E 139°46'0 0.0
2018-Feb-16 13:24N 35°31' E 139°46'0 0.0
2018-Feb-16 13:00N 35°31' E 139°46'0 0.0
2018-Feb-16 12:29N 35°31' E 139°46'0 0.0
2018-Feb-16 11:59N 35°31' E 139°46'0 0.0
2018-Feb-16 11:29N 35°31' E 139°46'0 0.0
2018-Feb-16 10:59N 35°31' E 139°46'0 0.0
2018-Feb-16 10:11N 35°31' E 139°46'0 0.0
2018-Feb-16 09:59N 35°31' E 139°46'0 0.0
2018-Feb-16 09:29N 35°31' E 139°46'0 0.0
2018-Feb-16 05:17N 35°31' E 139°46'0 0.0
2018-Feb-16 03:11N 35°31' E 139°46'0 0.0
2018-Feb-16 02:53N 35°31' E 139°46'0 0.0
2018-Feb-16 02:29N 35°31' E 139°46'0 0.4
2018-Feb-16 01:50N 35°31' E 139°46'2 6.1
2018-Feb-16 01:30N 35°30' E 139°44'3 6.6
2018-Feb-16 01:00N 35°26' E 139°43'4 7.0
2018-Feb-16 00:30N 35°23' E 139°45'0 0.0
2018-Feb-15 23:58N 35°23' E 139°45'0 0.0
2018-Feb-15 23:28N 35°23' E 139°45'0 0.0
2018-Feb-15 22:58N 35°23' E 139°45'0 0.0
2018-Feb-15 22:28N 35°23' E 139°45'0 0.0
2018-Feb-15 21:58N 35°23' E 139°45'0 0.0
2018-Feb-15 21:28N 35°23' E 139°45'0 0.0
2018-Feb-15 21:01N 35°23' E 139°45'0 0.0
2018-Feb-15 20:30N 35°23' E 139°45'0 0.0
2018-Feb-15 20:00N 35°23' E 139°45'0 0.1
2018-Feb-15 19:30N 35°23' E 139°45'0 0.0
2018-Feb-15 19:00N 35°23' E 139°45'0 0.0
2018-Feb-15 18:30N 35°23' E 139°45'0 0.0
2018-Feb-15 18:00N 35°23' E 139°45'0 0.0
2018-Feb-15 17:30N 35°23' E 139°45'0 0.0
2018-Feb-15 17:00N 35°23' E 139°45'0 0.1
2018-Feb-15 16:30N 35°23' E 139°45'0 0.0
2018-Feb-15 16:00N 35°23' E 139°45'0 0.0
2018-Feb-15 15:30N 35°23' E 139°45'0 0.0
2018-Feb-15 15:00N 35°23' E 139°45'0 0.1
2018-Feb-15 14:30N 35°23' E 139°45'0 0.0
2018-Feb-15 14:00N 35°23' E 139°45'0 0.0
2018-Feb-15 13:30N 35°23' E 139°45'0 0.0
2018-Feb-15 13:00N 35°23' E 139°45'0 0.1
2018-Feb-15 12:30N 35°23' E 139°45'0 0.0
2018-Feb-15 11:57N 35°23' E 139°45'0 0.0
2018-Feb-15 11:30N 35°23' E 139°45'0 0.0
2018-Feb-15 10:57N 35°23' E 139°45'0 0.1
2018-Feb-15 10:30N 35°23' E 139°45'0 0.0
2018-Feb-15 10:00N 35°23' E 139°45'0 0.0
2018-Feb-15 09:30N 35°23' E 139°45'4 7.7
2018-Feb-15 09:00N 35°19' E 139°44'612.2
2018-Feb-15 08:30N 35°14' E 139°47'713.3
2018-Feb-15 08:01N 35°07' E 139°45'713.1
2018-Feb-15 07:30N 35°02' E 139°40'814.8
2018-Feb-15 07:00N 34°58' E 139°33'816.2
2018-Feb-15 06:30N 34°53' E 139°24'815.9
2018-Feb-15 06:00N 34°48' E 139°17'915.1
2018-Feb-15 05:23N 34°42' E 139°09'513.8
2018-Feb-15 05:00N 34°38' E 139°05'714.9
2018-Feb-15 04:30N 34°33' E 138°58'814.0
2018-Feb-15 03:58N 34°31' E 138°49'714.6
2018-Feb-15 03:31N 34°31' E 138°41'714.5
2018-Feb-15 03:00N 34°31' E 138°32'814.5
2018-Feb-15 02:27N 34°31' E 138°23'715.1
2018-Feb-15 02:00N 34°31' E 138°14'814.8
2018-Feb-15 01:29N 34°31' E 138°05'813.8
2018-Feb-15 00:54N 34°31' E 137°55'813.4
2018-Feb-15 00:18N 34°31' E 137°45'1713.5
2018-Feb-14 23:01N 34°31' E 137°24'113.6
2018-Feb-14 22:57N 34°31' E 137°23'614.2
2018-Feb-14 22:30N 34°31' E 137°16'814.2
2018-Feb-14 21:56N 34°32' E 137°06'512.8
2018-Feb-14 21:30N 34°34' E 136°60'713.3
2018-Feb-14 21:00N 34°38' E 136°53'713.3
2018-Feb-14 20:30N 34°43' E 136°48'713.7
2018-Feb-14 20:01N 34°50' E 136°46'713.9
2018-Feb-14 19:30N 34°56' E 136°47'5 9.9
2018-Feb-14 19:00N 35°00' E 136°51'0 0.2
2018-Feb-14 18:28N 35°00' E 136°51'0 0.0
2018-Feb-14 17:58N 35°00' E 136°51'0 0.0
2018-Feb-14 17:28N 35°00' E 136°51'0 0.0
2018-Feb-14 16:58N 35°00' E 136°51'0 0.0
2018-Feb-14 16:28N 35°00' E 136°51'0 0.0
2018-Feb-14 15:58N 35°00' E 136°51'0 0.0
2018-Feb-14 15:31N 35°00' E 136°51'0 0.0
2018-Feb-14 15:01N 35°00' E 136°51'0 0.0
2018-Feb-14 14:31N 35°00' E 136°51'0 0.0
2018-Feb-14 14:01N 35°00' E 136°51'0 0.0
2018-Feb-14 13:30N 35°00' E 136°51'0 0.0
2018-Feb-14 13:00N 35°00' E 136°51'0 0.0
2018-Feb-14 12:30N 35°00' E 136°51'0 0.0
2018-Feb-14 12:00N 35°00' E 136°51'0 0.0
2018-Feb-14 11:30N 35°00' E 136°51'0 0.0
2018-Feb-14 10:57N 35°00' E 136°51'0 0.0
2018-Feb-14 10:27N 35°00' E 136°51'0 0.0
2018-Feb-14 10:00N 35°00' E 136°51'0 0.0
2018-Feb-14 09:30N 35°00' E 136°51'0 0.0
2018-Feb-14 09:00N 35°00' E 136°51'0 0.0
2018-Feb-14 08:30N 35°00' E 136°51'0 0.0
2018-Feb-14 08:00N 35°00' E 136°51'0 0.0
2018-Feb-14 07:30N 35°00' E 136°51'0 0.0
2018-Feb-14 07:00N 35°00' E 136°51'0 0.0
2018-Feb-14 06:27N 35°00' E 136°51'0 0.0
2018-Feb-14 06:00N 35°00' E 136°51'0 0.0
2018-Feb-14 05:30N 35°00' E 136°51'0 0.0
2018-Feb-14 04:57N 35°00' E 136°51'0 0.0
2018-Feb-14 04:30N 35°00' E 136°51'0 0.0
2018-Feb-14 04:00N 35°00' E 136°51'0 0.1
2018-Feb-14 03:30N 35°00' E 136°51'3 6.5
2018-Feb-14 03:00N 34°60' E 136°47'3 4.8
2018-Feb-14 02:28N 34°57' E 136°47'0 0.0
2018-Feb-14 01:58N 34°57' E 136°47'0 0.0
2018-Feb-14 01:28N 34°57' E 136°47'0 0.0
2018-Feb-14 00:58N 34°57' E 136°47'0 0.0
2018-Feb-14 00:28N 34°57' E 136°47'0 0.0
2018-Feb-13 23:55N 34°57' E 136°47'0 0.0
2018-Feb-13 23:28N 34°57' E 136°47'0 0.1
2018-Feb-13 22:58N 34°57' E 136°47'0 0.0
2018-Feb-13 22:25N 34°57' E 136°47'0 0.0
2018-Feb-13 21:58N 34°57' E 136°47'0 0.0
2018-Feb-13 21:28N 34°57' E 136°47'0 0.1
2018-Feb-13 20:58N 34°57' E 136°47'0 0.0
2018-Feb-13 20:28N 34°57' E 136°47'0 0.0
2018-Feb-13 19:58N 34°57' E 136°47'  
Track history (hours):
 
Tides and Currents Weather Stations Pressure Air Temp Water Temp Dewpoint Dewpoint Depression Visibility Wind Speed Wind Dir Waves Ship Positions

Eishin Maru No.18

Last reported at 2018-Feb-23 19:56 UTC. Time now 2018-Feb-24 03:48 UTC.
Position N 40°54' E 140°46'.

Length 104 m; draft 6.4 m.

Type: Tanker. MMSI: 431501832.

Date/timePositionNaut miles runAvg speedWind from/ knotsBaromVisibWave heightAir tempDewpointWater temp
2018-Feb-23 19:56N 40°54' E 140°46'0 0.0
2018-Feb-23 18:58N 40°54' E 140°46'0 0.1
2018-Feb-23 18:20N 40°54' E 140°46'411.5
2018-Feb-23 18:00N 40°57' E 140°45'713.5
2018-Feb-23 17:31N 41°04' E 140°44'713.6
2018-Feb-23 16:59N 41°11' E 140°43'613.2
2018-Feb-23 16:30N 41°17' E 140°44'713.7
2018-Feb-23 16:00N 41°24' E 140°45'712.7
2018-Feb-23 15:30N 41°30' E 140°48'611.8
2018-Feb-23 15:00N 41°35' E 140°52'5 9.8
2018-Feb-23 14:31N 41°38' E 140°57'611.3
2018-Feb-23 14:00N 41°41' E 141°03'713.3
2018-Feb-23 13:30N 41°45' E 141°11'612.0
2018-Feb-23 13:00N 41°51' E 141°13'  
2018-Feb-17 02:49N 35°03' E 140°21'714.8
2018-Feb-17 02:20N 34°60' E 140°13'514.9
2018-Feb-17 02:00N 34°58' E 140°08'814.9
2018-Feb-17 01:27N 34°54' E 139°59'714.1
2018-Feb-17 00:58N 34°51' E 139°51'1012.9
2018-Feb-17 00:09N 34°58' E 139°42'213.6
2018-Feb-16 23:59N 35°01' E 139°43'713.5
2018-Feb-16 23:30N 35°07' E 139°45'713.7
2018-Feb-16 23:00N 35°14' E 139°46'613.0
2018-Feb-16 22:30N 35°20' E 139°43'612.4
2018-Feb-16 22:00N 35°25' E 139°45'5 9.9
2018-Feb-16 21:29N 35°30' E 139°47'1 1.1
2018-Feb-16 21:00N 35°31' E 139°46'0 0.0
2018-Feb-16 20:30N 35°31' E 139°46'0 0.0
2018-Feb-16 20:00N 35°31' E 139°46'0 0.0
2018-Feb-16 19:30N 35°31' E 139°46'0 0.0
2018-Feb-16 19:00N 35°31' E 139°46'0 0.0
2018-Feb-16 18:30N 35°31' E 139°46'0 0.0
2018-Feb-16 17:54N 35°31' E 139°46'0 0.0
2018-Feb-16 17:18N 35°31' E 139°46'0 0.0
2018-Feb-16 17:00N 35°31' E 139°46'0 0.0
2018-Feb-16 16:24N 35°31' E 139°46'0 0.0
2018-Feb-16 16:00N 35°31' E 139°46'0 0.0
2018-Feb-16 15:30N 35°31' E 139°46'0 0.0
2018-Feb-16 15:00N 35°31' E 139°46'0 0.0
2018-Feb-16 14:30N 35°31' E 139°46'0 0.0
2018-Feb-16 13:54N 35°31' E 139°46'0 0.0
2018-Feb-16 13:24N 35°31' E 139°46'0 0.0
2018-Feb-16 13:00N 35°31' E 139°46'0 0.0
2018-Feb-16 12:29N 35°31' E 139°46'0 0.0
2018-Feb-16 11:59N 35°31' E 139°46'0 0.0
2018-Feb-16 11:29N 35°31' E 139°46'0 0.0
2018-Feb-16 10:59N 35°31' E 139°46'0 0.0
2018-Feb-16 10:11N 35°31' E 139°46'0 0.0
2018-Feb-16 09:59N 35°31' E 139°46'0 0.0
2018-Feb-16 09:29N 35°31' E 139°46'0 0.0
2018-Feb-16 05:17N 35°31' E 139°46'0 0.0
2018-Feb-16 03:11N 35°31' E 139°46'0 0.0
2018-Feb-16 02:53N 35°31' E 139°46'0 0.0
2018-Feb-16 02:29N 35°31' E 139°46'0 0.4
2018-Feb-16 01:50N 35°31' E 139°46'2 6.1
2018-Feb-16 01:30N 35°30' E 139°44'3 6.6
2018-Feb-16 01:00N 35°26' E 139°43'4 7.0
2018-Feb-16 00:30N 35°23' E 139°45'0 0.0
2018-Feb-15 23:58N 35°23' E 139°45'0 0.0
2018-Feb-15 23:28N 35°23' E 139°45'0 0.0
2018-Feb-15 22:58N 35°23' E 139°45'0 0.0
2018-Feb-15 22:28N 35°23' E 139°45'0 0.0
2018-Feb-15 21:58N 35°23' E 139°45'0 0.0
2018-Feb-15 21:28N 35°23' E 139°45'0 0.0
2018-Feb-15 21:01N 35°23' E 139°45'0 0.0
2018-Feb-15 20:30N 35°23' E 139°45'0 0.0
2018-Feb-15 20:00N 35°23' E 139°45'0 0.1
2018-Feb-15 19:30N 35°23' E 139°45'0 0.0
2018-Feb-15 19:00N 35°23' E 139°45'0 0.0
2018-Feb-15 18:30N 35°23' E 139°45'0 0.0
2018-Feb-15 18:00N 35°23' E 139°45'0 0.0
2018-Feb-15 17:30N 35°23' E 139°45'0 0.0
2018-Feb-15 17:00N 35°23' E 139°45'0 0.1
2018-Feb-15 16:30N 35°23' E 139°45'0 0.0
2018-Feb-15 16:00N 35°23' E 139°45'0 0.0
2018-Feb-15 15:30N 35°23' E 139°45'0 0.0
2018-Feb-15 15:00N 35°23' E 139°45'0 0.1
2018-Feb-15 14:30N 35°23' E 139°45'0 0.0
2018-Feb-15 14:00N 35°23' E 139°45'0 0.0
2018-Feb-15 13:30N 35°23' E 139°45'0 0.0
2018-Feb-15 13:00N 35°23' E 139°45'0 0.1
2018-Feb-15 12:30N 35°23' E 139°45'0 0.0
2018-Feb-15 11:57N 35°23' E 139°45'0 0.0
2018-Feb-15 11:30N 35°23' E 139°45'0 0.0
2018-Feb-15 10:57N 35°23' E 139°45'0 0.1
2018-Feb-15 10:30N 35°23' E 139°45'0 0.0
2018-Feb-15 10:00N 35°23' E 139°45'0 0.0
2018-Feb-15 09:30N 35°23' E 139°45'4 7.7
2018-Feb-15 09:00N 35°19' E 139°44'612.2
2018-Feb-15 08:30N 35°14' E 139°47'713.3
2018-Feb-15 08:01N 35°07' E 139°45'713.1
2018-Feb-15 07:30N 35°02' E 139°40'814.8
2018-Feb-15 07:00N 34°58' E 139°33'816.2
2018-Feb-15 06:30N 34°53' E 139°24'815.9
2018-Feb-15 06:00N 34°48' E 139°17'915.1
2018-Feb-15 05:23N 34°42' E 139°09'513.8
2018-Feb-15 05:00N 34°38' E 139°05'714.9
2018-Feb-15 04:30N 34°33' E 138°58'814.0
2018-Feb-15 03:58N 34°31' E 138°49'714.6
2018-Feb-15 03:31N 34°31' E 138°41'714.5
2018-Feb-15 03:00N 34°31' E 138°32'814.5
2018-Feb-15 02:27N 34°31' E 138°23'715.1
2018-Feb-15 02:00N 34°31' E 138°14'814.8
2018-Feb-15 01:29N 34°31' E 138°05'813.8
2018-Feb-15 00:54N 34°31' E 137°55'813.4
2018-Feb-15 00:18N 34°31' E 137°45'1713.5
2018-Feb-14 23:01N 34°31' E 137°24'113.6
2018-Feb-14 22:57N 34°31' E 137°23'614.2
2018-Feb-14 22:30N 34°31' E 137°16'814.2
2018-Feb-14 21:56N 34°32' E 137°06'512.8
2018-Feb-14 21:30N 34°34' E 136°60'713.3
2018-Feb-14 21:00N 34°38' E 136°53'713.3
2018-Feb-14 20:30N 34°43' E 136°48'713.7
2018-Feb-14 20:01N 34°50' E 136°46'713.9
2018-Feb-14 19:30N 34°56' E 136°47'5 9.9
2018-Feb-14 19:00N 35°00' E 136°51'0 0.2
2018-Feb-14 18:28N 35°00' E 136°51'0 0.0
2018-Feb-14 17:58N 35°00' E 136°51'0 0.0
2018-Feb-14 17:28N 35°00' E 136°51'0 0.0
2018-Feb-14 16:58N 35°00' E 136°51'0 0.0
2018-Feb-14 16:28N 35°00' E 136°51'0 0.0
2018-Feb-14 15:58N 35°00' E 136°51'0 0.0
2018-Feb-14 15:31N 35°00' E 136°51'0 0.0
2018-Feb-14 15:01N 35°00' E 136°51'0 0.0
2018-Feb-14 14:31N 35°00' E 136°51'0 0.0
2018-Feb-14 14:01N 35°00' E 136°51'0 0.0
2018-Feb-14 13:30N 35°00' E 136°51'0 0.0
2018-Feb-14 13:00N 35°00' E 136°51'0 0.0
2018-Feb-14 12:30N 35°00' E 136°51'0 0.0
2018-Feb-14 12:00N 35°00' E 136°51'0 0.0
2018-Feb-14 11:30N 35°00' E 136°51'0 0.0
2018-Feb-14 10:57N 35°00' E 136°51'0 0.0
2018-Feb-14 10:27N 35°00' E 136°51'0 0.0
2018-Feb-14 10:00N 35°00' E 136°51'0 0.0
2018-Feb-14 09:30N 35°00' E 136°51'0 0.0
2018-Feb-14 09:00N 35°00' E 136°51'0 0.0
2018-Feb-14 08:30N 35°00' E 136°51'0 0.0
2018-Feb-14 08:00N 35°00' E 136°51'0 0.0
2018-Feb-14 07:30N 35°00' E 136°51'0 0.0
2018-Feb-14 07:00N 35°00' E 136°51'0 0.0
2018-Feb-14 06:27N 35°00' E 136°51'0 0.0
2018-Feb-14 06:00N 35°00' E 136°51'0 0.0
2018-Feb-14 05:30N 35°00' E 136°51'0 0.0
2018-Feb-14 04:57N 35°00' E 136°51'0 0.0
2018-Feb-14 04:30N 35°00' E 136°51'0 0.0
2018-Feb-14 04:00N 35°00' E 136°51'0 0.1
2018-Feb-14 03:30N 35°00' E 136°51'3 6.5
2018-Feb-14 03:00N 34°60' E 136°47'3 4.8
2018-Feb-14 02:28N 34°57' E 136°47'0 0.0
2018-Feb-14 01:58N 34°57' E 136°47'0 0.0
2018-Feb-14 01:28N 34°57' E 136°47'0 0.0
2018-Feb-14 00:58N 34°57' E 136°47'0 0.0
2018-Feb-14 00:28N 34°57' E 136°47'0 0.0
2018-Feb-13 23:55N 34°57' E 136°47'0 0.0
2018-Feb-13 23:28N 34°57' E 136°47'0 0.1
2018-Feb-13 22:58N 34°57' E 136°47'0 0.0
2018-Feb-13 22:25N 34°57' E 136°47'0 0.0
2018-Feb-13 21:58N 34°57' E 136°47'0 0.0
2018-Feb-13 21:28N 34°57' E 136°47'0 0.1
2018-Feb-13 20:58N 34°57' E 136°47'0 0.0
2018-Feb-13 20:28N 34°57' E 136°47'0 0.0
2018-Feb-13 19:58N 34°57' E 136°47'  

Dump ship's entire track history